Main page
METAR-TAF:

METAR-TAF

Airports :

Kaunas Airport

Kaunas, Lithuania

latitude: 54-54N, longitude: 023-55-12E, elevation: 77 m

Current weather observation

The report was made 27 minutes ago, at 06:20 UTC
Wind 2 kt from variable directions
Temperature 18°C
Humidity 59%
Pressure 1026 hPa
Visibility 10 km or more
no clouds below 1500 m and no cumulonimbus

METAR: EYKA 060620Z VRB02KT CAVOK 18/10 Q1026

Time: 09:47 (06:47 UTC)

Forecast

The report was made 1 hour and 45 minutes ago, at 05:02 UTC
Forecast valid from 06 at 06 UTC to 07 at 06 UTC
Wind 5 kt from variable directions
Visibility 10 km or more
no clouds below 1500 m and no cumulonimbus

TAF: EYKA 060502Z 0606/0706 VRB05KT CAVOK

Weather observations and forecasts of more than 4000 airports (METAR and TAF reports).

The available stations are represented by yellow and red dots on the map.

Hover mouse over dot to see the name of the station.

Then click to see weather observations and forecasts.

To change the map : click on the green buttons with a black cross to zoom in, on the green button with a dash to zoom out, or on the green arrows for adjacent maps.


METAR-TAF: